地図

経路データ

SID SEASON NUMBER BASIN SUBBASIN NAME ISO_TIME NATURE LAT LON WMO_WIND WMO_PRES WMO_AGENCY TRACK_TYPE DIST2LAND LANDFALL IFLAG USA_AGENCY USA_ATCF_ID USA_LAT USA_LON USA_RECORD USA_STATUS USA_WIND USA_PRES USA_SSHS USA_R34_NE USA_R34_SE USA_R34_SW USA_R34_NW USA_R50_NE USA_R50_SE USA_R50_SW USA_R50_NW USA_R64_NE USA_R64_SE USA_R64_SW USA_R64_NW USA_POCI USA_ROCI USA_RMW USA_EYE TOKYO_LAT TOKYO_LON TOKYO_GRADE TOKYO_WIND TOKYO_PRES TOKYO_R50_DIR TOKYO_R50_LONG TOKYO_R50_SHORT TOKYO_R30_DIR TOKYO_R30_LONG TOKYO_R30_SHORT TOKYO_LAND CMA_LAT CMA_LON CMA_CAT CMA_WIND CMA_PRES HKO_LAT HKO_LON HKO_CAT HKO_WIND HKO_PRES NEWDELHI_LAT NEWDELHI_LON NEWDELHI_GRADE NEWDELHI_WIND NEWDELHI_PRES NEWDELHI_CI NEWDELHI_DP NEWDELHI_POCI REUNION_LAT REUNION_LON REUNION_TYPE REUNION_WIND REUNION_PRES REUNION_TNUM REUNION_CI REUNION_RMW REUNION_R34_NE REUNION_R34_SE REUNION_R34_SW REUNION_R34_NW REUNION_R50_NE REUNION_R50_SE REUNION_R50_SW REUNION_R50_NW REUNION_R64_NE REUNION_R64_SE REUNION_R64_SW REUNION_R64_NW BOM_LAT BOM_LON BOM_TYPE BOM_WIND BOM_PRES BOM_TNUM BOM_CI BOM_RMW BOM_R34_NE BOM_R34_SE BOM_R34_SW BOM_R34_NW BOM_R50_NE BOM_R50_SE BOM_R50_SW BOM_R50_NW BOM_R64_NE BOM_R64_SE BOM_R64_SW BOM_R64_NW BOM_ROCI BOM_POCI BOM_EYE BOM_POS_METHOD BOM_PRES_METHOD NADI_LAT NADI_LON NADI_CAT NADI_WIND NADI_PRES WELLINGTON_LAT WELLINGTON_LON WELLINGTON_WIND WELLINGTON_PRES DS824_LAT DS824_LON DS824_STAGE DS824_WIND DS824_PRES TD9636_LAT TD9636_LON TD9636_STAGE TD9636_WIND TD9636_PRES TD9635_LAT TD9635_LON TD9635_WIND TD9635_PRES TD9635_ROCI NEUMANN_LAT NEUMANN_LON NEUMANN_CLASS NEUMANN_WIND NEUMANN_PRES MLC_LAT MLC_LON MLC_CLASS MLC_WIND MLC_PRES USA_GUST BOM_GUST BOM_GUST_PER REUNION_GUST REUNION_GUST_PER USA_SEAHGT USA_SEARAD_NE USA_SEARAD_SE USA_SEARAD_SW USA_SEARAD_NW STORM_SPEED STORM_DIR
1977242N27272 1977 73 NA GM ANITA 1977-08-29 12:00:00 TS 26.9000 -88.4000 20 1012 hurdat_atl main 244 228 O_____________ hurdat_atl AL051977 26.9000 -88.4000 TD 20 1012 -1 5 288
1977242N27272 1977 73 NA GM ANITA 1977-08-29 15:00:00 TS 26.9701 -88.6474 main 228 224 P_____________ AL051977 26.9701 -88.6474 TD 22 1011 -1 5 283
1977242N27272 1977 73 NA GM ANITA 1977-08-29 18:00:00 TS 27.0000 -88.9000 25 1010 hurdat_atl main 224 223 O_____________ hurdat_atl AL051977 27.0000 -88.9000 TD 25 1010 -1 5 269
1977242N27272 1977 73 NA GM ANITA 1977-08-29 21:00:00 TS 26.9650 -89.1576 main 223 223 P_____________ AL051977 26.9650 -89.1576 TD 27 1009 -1 5 257
1977242N27272 1977 73 NA GM ANITA 1977-08-30 00:00:00 TS 26.9000 -89.4000 30 1009 hurdat_atl main 236 236 O_____________ hurdat_atl AL051977 26.9000 -89.4000 TD 30 1009 -1 4 254
1977242N27272 1977 73 NA GM ANITA 1977-08-30 03:00:00 TS 26.8499 -89.6000 main 250 250 P_____________ AL051977 26.8499 -89.6000 TD 35 1007 0 4 254
1977242N27272 1977 73 NA GM ANITA 1977-08-30 06:00:00 TS 26.8000 -89.8000 40 1006 hurdat_atl main 255 255 O_____________ hurdat_atl AL051977 26.8000 -89.8000 TS 40 1006 0 4 257
1977242N27272 1977 73 NA GM ANITA 1977-08-30 09:00:00 TS 26.7576 -90.0575 main 256 256 P_____________ AL051977 26.7576 -90.0575 TS 45 1004 0 5 257
1977242N27272 1977 73 NA GM ANITA 1977-08-30 12:00:00 TS 26.7000 -90.3000 50 1003 hurdat_atl main 268 268 O_____________ hurdat_atl AL051977 26.7000 -90.3000 TS 50 1003 0 4 246
1977242N27272 1977 73 NA GM ANITA 1977-08-30 15:00:00 TS 26.5999 -90.4575 main 279 279 P_____________ AL051977 26.5999 -90.4575 TS 57 1000 0 3 233
1977242N27272 1977 73 NA GM ANITA 1977-08-30 18:00:00 TS 26.5000 -90.6000 65 997 hurdat_atl main 290 290 O_____________ hurdat_atl AL051977 26.5000 -90.6000 HU 65 997 1 3 242
1977242N27272 1977 73 NA GM ANITA 1977-08-30 21:00:00 TS 26.4425 -90.7925 main 301 301 P_____________ AL051977 26.4425 -90.7925 HU 67 994 1 4 254
1977242N27272 1977 73 NA GM ANITA 1977-08-31 00:00:00 TS 26.4000 -91.0000 70 991 hurdat_atl main 301 301 O_____________ hurdat_atl AL051977 26.4000 -91.0000 HU 70 991 1 4 256
1977242N27272 1977 73 NA GM ANITA 1977-08-31 03:00:00 TS 26.3500 -91.2000 main 314 314 P_____________ AL051977 26.3500 -91.2000 HU 72 989 1 4 254
1977242N27272 1977 73 NA GM ANITA 1977-08-31 06:00:00 TS 26.3000 -91.4000 75 988 hurdat_atl main 316 316 O_____________ hurdat_atl AL051977 26.3000 -91.4000 HU 75 988 1 4 254
1977242N27272 1977 73 NA GM ANITA 1977-08-31 09:00:00 TS 26.2499 -91.5925 main 331 331 P_____________ AL051977 26.2499 -91.5925 HU 75 987 1 4 254
1977242N27272 1977 73 NA GM ANITA 1977-08-31 12:00:00 TS 26.2000 -91.8000 75 986 hurdat_atl main 335 335 O_____________ hurdat_atl AL051977 26.2000 -91.8000 HU 75 986 1 4 257
1977242N27272 1977 73 NA GM ANITA 1977-08-31 15:00:00 TS 26.1575 -92.0424 main 341 341 P_____________ AL051977 26.1575 -92.0424 HU 77 985 1 5 257
1977242N27272 1977 73 NA GM ANITA 1977-08-31 18:00:00 TS 26.1000 -92.3000 80 985 hurdat_atl main 362 362 O_____________ hurdat_atl AL051977 26.1000 -92.3000 HU 80 985 1 5 250
1977242N27272 1977 73 NA GM ANITA 1977-08-31 21:00:00 TS 25.9998 -92.5200 main 380 380 P_____________ AL051977 25.9998 -92.5200 HU 80 982 1 5 246
1977242N27272 1977 73 NA GM ANITA 1977-09-01 00:00:00 TS 25.9000 -92.8000 80 979 hurdat_atl main 403 389 O_____________ hurdat_atl AL051977 25.9000 -92.8000 HU 80 979 1 6 257
1977242N27272 1977 73 NA GM ANITA 1977-09-01 03:00:00 TS 25.8575 -93.2123 main 389 340 P_____________ AL051977 25.8575 -93.2123 HU 82 975 1 8 263
1977242N27272 1977 73 NA GM ANITA 1977-09-01 06:00:00 TS 25.8000 -93.7000 85 972 hurdat_atl main 340 291 O_____________ hurdat_atl AL051977 25.8000 -93.7000 HU 85 972 2 9 258
1977242N27272 1977 73 NA GM ANITA 1977-09-01 09:00:00 TS 25.6650 -94.2076 main 291 246 P_____________ AL051977 25.6650 -94.2076 HU 87 967 2 10 252
1977242N27272 1977 73 NA GM ANITA 1977-09-01 12:00:00 TS 25.5000 -94.7000 90 963 hurdat_atl main 246 211 O_____________ hurdat_atl AL051977 25.5000 -94.7000 HU 90 963 2 9 250
1977242N27272 1977 73 NA GM ANITA 1977-09-01 15:00:00 TS 25.3723 -95.1222 main 211 176 P_____________ AL051977 25.3723 -95.1222 HU 100 954 3 8 247
1977242N27272 1977 73 NA GM ANITA 1977-09-01 18:00:00 TS 25.2000 -95.5000 110 945 hurdat_atl main 176 155 O_____________ hurdat_atl AL051977 25.2000 -95.5000 HU 110 945 3 8 234
1977242N27272 1977 73 NA GM ANITA 1977-09-01 21:00:00 TS 24.9072 -95.8425 main 160 138 P_____________ AL051977 24.9072 -95.8425 HU 125 938 4 9 227
1977242N27272 1977 73 NA GM ANITA 1977-09-02 00:00:00 TS 24.6000 -96.2000 140 931 hurdat_atl main 138 111 O_____________ hurdat_atl AL051977 24.6000 -96.2000 HU 140 931 5 9 234
1977242N27272 1977 73 NA GM ANITA 1977-09-02 03:00:00 TS 24.3925 -96.6347 main 111 69 P_____________ AL051977 24.3925 -96.6347 HU 145 928 5 9 244
1977242N27272 1977 73 NA GM ANITA 1977-09-02 06:00:00 TS 24.2000 -97.1000 150 926 hurdat_atl main 69 30 O_____________ hurdat_atl AL051977 24.2000 -97.1000 HU 150 926 5 9 242
1977242N27272 1977 73 NA GM ANITA 1977-09-02 09:00:00 TS 23.9646 -97.5272 main 30 0 P_____________ AL051977 23.9646 -97.5272 HU 135 933 4 10 239
1977242N27272 1977 73 NA NA ANITA 1977-09-02 12:00:00 TS 23.7000 -98.0000 120 940 hurdat_atl main 0 0 O_____________ hurdat_atl AL051977 23.7000 -98.0000 HU 120 940 4 11 239
1977242N27272 1977 73 NA NA ANITA 1977-09-02 15:00:00 TS 23.4069 -98.5322 main 0 0 P_____________ AL051977 23.4069 -98.5322 HU 95 959 2 13 241
1977242N27272 1977 73 NA NA ANITA 1977-09-02 18:00:00 TS 23.1000 -99.2000 70 978 hurdat_atl main 0 0 O_____________ hurdat_atl AL051977 23.1000 -99.2000 HU 70 978 1 15 246
1977242N27272 1977 73 NA NA ANITA 1977-09-02 21:00:00 TS 22.7924 -100.040 main 0 0 P_____________ AL051977 22.7924 -100.040 HU 55 988 0 18 250
1977242N27272 1977 73 NA NA ANITA 1977-09-03 00:00:00 TS 22.5000 -101.000 40 998 hurdat_atl main 0 0 O_____________ hurdat_atl AL051977 22.5000 -101.000 TS 40 998 0 19 253
1977242N27272 1977 73 NA NA ANITA 1977-09-03 03:00:00 TS 22.2411 -101.995 main 0 0 P_____________ AL051977 22.2411 -101.995 TS 32 1004 -1 19 255
1977242N27272 1977 73 NA NA ANITA 1977-09-03 06:00:00 TS 22.0000 -103.000 25 1011 hurdat_atl main 0 O_____________ hurdat_atl AL051977 22.0000 -103.000 TD 25 1011 -1 19 255

IBTrACS Databaseについて

本データベースは、米国NOAAが公開する1842年以降の世界の熱帯低気圧のベストトラックデータアーカイブInternational Best Track Archive for Climate Stewardship (IBTrACS)を、ウェブで閲覧しやすい形式に変換したものです。

最終更新日:2021-12-06